sensor_id;sensor_type;location;lat;lon;timestamp;temperature;humidity
7972;DHT22;4031;49.758;6.120;2023-08-24T00:00:53;18.00;99.90
7972;DHT22;4031;49.758;6.120;2023-08-24T00:03:19;18.00;99.90
7972;DHT22;4031;49.758;6.120;2023-08-24T00:05:47;18.00;99.90
7972;DHT22;4031;49.758;6.120;2023-08-24T00:08:13;18.00;99.90
7972;DHT22;4031;49.758;6.120;2023-08-24T00:10:38;18.00;99.90
7972;DHT22;4031;49.758;6.120;2023-08-24T00:13:04;18.10;99.90
7972;DHT22;4031;49.758;6.120;2023-08-24T00:15:30;18.10;99.90
7972;DHT22;4031;49.758;6.120;2023-08-24T00:17:56;18.00;99.90
7972;DHT22;4031;49.758;6.120;2023-08-24T00:20:22;18.10;99.90
7972;DHT22;4031;49.758;6.120;2023-08-24T00:22:48;18.10;99.90
7972;DHT22;4031;49.758;6.120;2023-08-24T00:25:14;18.10;99.90
7972;DHT22;4031;49.758;6.120;2023-08-24T00:27:40;18.10;99.90
7972;DHT22;4031;49.758;6.120;2023-08-24T00:30:07;18.10;99.90
7972;DHT22;4031;49.758;6.120;2023-08-24T00:32:34;18.10;99.90
7972;DHT22;4031;49.758;6.120;2023-08-24T00:35:04;18.10;99.90
7972;DHT22;4031;49.758;6.120;2023-08-24T00:37:34;18.10;99.90
7972;DHT22;4031;49.758;6.120;2023-08-24T00:40:02;18.00;99.90
7972;DHT22;4031;49.758;6.120;2023-08-24T00:42:33;18.00;99.90
7972;DHT22;4031;49.758;6.120;2023-08-24T00:44:58;18.00;99.90
7972;DHT22;4031;49.758;6.120;2023-08-24T00:47:25;17.90;99.90
7972;DHT22;4031;49.758;6.120;2023-08-24T00:49:50;17.80;99.90
7972;DHT22;4031;49.758;6.120;2023-08-24T00:52:17;17.90;99.90
7972;DHT22;4031;49.758;6.120;2023-08-24T00:54:43;17.90;99.90
7972;DHT22;4031;49.758;6.120;2023-08-24T00:57:10;17.90;99.90
7972;DHT22;4031;49.758;6.120;2023-08-24T00:59:36;17.90;99.90
7972;DHT22;4031;49.758;6.120;2023-08-24T01:02:02;17.80;99.90
7972;DHT22;4031;49.758;6.120;2023-08-24T01:04:28;17.80;99.90
7972;DHT22;4031;49.758;6.120;2023-08-24T01:06:53;17.80;99.90
7972;DHT22;4031;49.758;6.120;2023-08-24T01:09:20;17.70;99.90
7972;DHT22;4031;49.758;6.120;2023-08-24T01:14:54;17.60;99.90
7972;DHT22;4031;49.758;6.120;2023-08-24T01:17:26;17.50;99.90
7972;DHT22;4031;49.758;6.120;2023-08-24T01:19:55;17.40;99.90
7972;DHT22;4031;49.758;6.120;2023-08-24T01:25:19;17.40;99.90
7972;DHT22;4031;49.758;6.120;2023-08-24T01:27:50;17.30;99.90
7972;DHT22;4031;49.758;6.120;2023-08-24T01:30:18;17.30;99.90
7972;DHT22;4031;49.758;6.120;2023-08-24T01:32:45;17.40;99.90
7972;DHT22;4031;49.758;6.120;2023-08-24T01:35:11;17.30;99.90
7972;DHT22;4031;49.758;6.120;2023-08-24T01:37:37;17.30;99.90
7972;DHT22;4031;49.758;6.120;2023-08-24T01:40:13;17.20;99.90
7972;DHT22;4031;49.758;6.120;2023-08-24T01:45:14;17.20;99.90
7972;DHT22;4031;49.758;6.120;2023-08-24T01:47:42;17.10;99.90
7972;DHT22;4031;49.758;6.120;2023-08-24T01:50:09;17.10;99.90
7972;DHT22;4031;49.758;6.120;2023-08-24T01:52:35;17.00;99.90
7972;DHT22;4031;49.758;6.120;2023-08-24T01:55:01;16.90;99.90
7972;DHT22;4031;49.758;6.120;2023-08-24T01:57:27;16.90;99.90
7972;DHT22;4031;49.758;6.120;2023-08-24T01:59:52;16.80;99.90
7972;DHT22;4031;49.758;6.120;2023-08-24T02:02:18;16.90;99.90
7972;DHT22;4031;49.758;6.120;2023-08-24T02:04:44;17.00;99.90
7972;DHT22;4031;49.758;6.120;2023-08-24T02:07:10;17.00;99.90
7972;DHT22;4031;49.758;6.120;2023-08-24T02:09:35;17.10;99.90
7972;DHT22;4031;49.758;6.120;2023-08-24T02:12:01;17.20;99.90
7972;DHT22;4031;49.758;6.120;2023-08-24T02:14:29;17.20;99.90
7972;DHT22;4031;49.758;6.120;2023-08-24T02:16:55;17.30;99.90
7972;DHT22;4031;49.758;6.120;2023-08-24T02:19:21;17.40;99.90
7972;DHT22;4031;49.758;6.120;2023-08-24T02:21:46;17.50;99.90
7972;DHT22;4031;49.758;6.120;2023-08-24T02:24:12;17.50;99.90
7972;DHT22;4031;49.758;6.120;2023-08-24T02:26:38;17.50;99.90
7972;DHT22;4031;49.758;6.120;2023-08-24T02:29:04;17.50;99.90
7972;DHT22;4031;49.758;6.120;2023-08-24T02:31:29;17.40;99.90
7972;DHT22;4031;49.758;6.120;2023-08-24T02:33:55;17.50;99.90
7972;DHT22;4031;49.758;6.120;2023-08-24T02:36:21;17.40;99.90
7972;DHT22;4031;49.758;6.120;2023-08-24T02:38:47;17.40;99.90
7972;DHT22;4031;49.758;6.120;2023-08-24T02:41:13;17.40;99.90
7972;DHT22;4031;49.758;6.120;2023-08-24T02:43:39;17.40;99.90
7972;DHT22;4031;49.758;6.120;2023-08-24T02:46:07;17.40;99.90
7972;DHT22;4031;49.758;6.120;2023-08-24T02:48:34;17.40;99.90
7972;DHT22;4031;49.758;6.120;2023-08-24T02:51:01;17.30;99.90
7972;DHT22;4031;49.758;6.120;2023-08-24T02:53:28;17.40;99.90
7972;DHT22;4031;49.758;6.120;2023-08-24T02:55:55;17.40;99.90
7972;DHT22;4031;49.758;6.120;2023-08-24T02:58:21;17.50;99.90
7972;DHT22;4031;49.758;6.120;2023-08-24T03:00:47;17.50;99.90
7972;DHT22;4031;49.758;6.120;2023-08-24T03:03:16;17.50;99.90
7972;DHT22;4031;49.758;6.120;2023-08-24T03:05:56;17.50;99.90
7972;DHT22;4031;49.758;6.120;2023-08-24T03:08:23;17.50;99.90
7972;DHT22;4031;49.758;6.120;2023-08-24T03:10:49;17.60;99.90
7972;DHT22;4031;49.758;6.120;2023-08-24T03:13:15;17.60;99.90
7972;DHT22;4031;49.758;6.120;2023-08-24T03:15:41;17.60;99.90
7972;DHT22;4031;49.758;6.120;2023-08-24T03:18:13;17.50;99.90
7972;DHT22;4031;49.758;6.120;2023-08-24T03:20:40;17.60;99.90
7972;DHT22;4031;49.758;6.120;2023-08-24T03:23:06;17.60;99.90
7972;DHT22;4031;49.758;6.120;2023-08-24T03:25:37;17.60;99.90
7972;DHT22;4031;49.758;6.120;2023-08-24T03:28:04;17.60;99.90
7972;DHT22;4031;49.758;6.120;2023-08-24T03:30:30;17.60;99.90
7972;DHT22;4031;49.758;6.120;2023-08-24T03:32:56;17.60;99.90
7972;DHT22;4031;49.758;6.120;2023-08-24T03:35:22;17.60;99.90
7972;DHT22;4031;49.758;6.120;2023-08-24T03:37:47;17.70;99.90
7972;DHT22;4031;49.758;6.120;2023-08-24T03:40:13;17.70;99.90
7972;DHT22;4031;49.758;6.120;2023-08-24T03:42:39;17.70;99.90
7972;DHT22;4031;49.758;6.120;2023-08-24T03:45:06;17.70;99.90
7972;DHT22;4031;49.758;6.120;2023-08-24T03:47:31;17.70;99.90
7972;DHT22;4031;49.758;6.120;2023-08-24T03:49:57;17.70;99.90
7972;DHT22;4031;49.758;6.120;2023-08-24T03:52:23;17.80;99.90
7972;DHT22;4031;49.758;6.120;2023-08-24T03:54:48;17.80;99.90
7972;DHT22;4031;49.758;6.120;2023-08-24T03:57:14;17.80;99.90
7972;DHT22;4031;49.758;6.120;2023-08-24T03:59:41;17.80;99.90
7972;DHT22;4031;49.758;6.120;2023-08-24T04:02:07;17.80;99.90
7972;DHT22;4031;49.758;6.120;2023-08-24T04:04:32;17.80;99.90
7972;DHT22;4031;49.758;6.120;2023-08-24T04:06:58;17.80;99.90
7972;DHT22;4031;49.758;6.120;2023-08-24T04:09:24;17.80;99.90
7972;DHT22;4031;49.758;6.120;2023-08-24T04:11:50;17.80;99.90
7972;DHT22;4031;49.758;6.120;2023-08-24T04:14:15;17.80;99.90
7972;DHT22;4031;49.758;6.120;2023-08-24T04:16:41;17.90;99.90
7972;DHT22;4031;49.758;6.120;2023-08-24T04:19:07;17.80;99.90
7972;DHT22;4031;49.758;6.120;2023-08-24T04:21:34;17.90;99.90
7972;DHT22;4031;49.758;6.120;2023-08-24T04:24:00;17.70;99.90
7972;DHT22;4031;49.758;6.120;2023-08-24T04:26:25;17.70;99.90
7972;DHT22;4031;49.758;6.120;2023-08-24T04:28:51;17.70;99.90
7972;DHT22;4031;49.758;6.120;2023-08-24T04:31:17;17.60;99.90
7972;DHT22;4031;49.758;6.120;2023-08-24T04:33:42;17.60;99.90
7972;DHT22;4031;49.758;6.120;2023-08-24T04:36:08;17.50;99.90
7972;DHT22;4031;49.758;6.120;2023-08-24T04:38:34;17.50;99.90
7972;DHT22;4031;49.758;6.120;2023-08-24T04:41:00;17.50;99.90
7972;DHT22;4031;49.758;6.120;2023-08-24T04:43:26;17.50;99.90
7972;DHT22;4031;49.758;6.120;2023-08-24T04:45:53;17.50;99.90
7972;DHT22;4031;49.758;6.120;2023-08-24T04:48:20;17.50;99.90
7972;DHT22;4031;49.758;6.120;2023-08-24T04:50:47;17.40;99.90
7972;DHT22;4031;49.758;6.120;2023-08-24T04:53:18;17.40;99.90
7972;DHT22;4031;49.758;6.120;2023-08-24T04:55:45;17.40;99.90
7972;DHT22;4031;49.758;6.120;2023-08-24T04:58:12;17.40;99.90
7972;DHT22;4031;49.758;6.120;2023-08-24T05:00:39;17.50;99.90
7972;DHT22;4031;49.758;6.120;2023-08-24T05:03:06;17.50;99.90
7972;DHT22;4031;49.758;6.120;2023-08-24T05:05:33;17.50;99.90
7972;DHT22;4031;49.758;6.120;2023-08-24T05:08:00;17.50;99.90
7972;DHT22;4031;49.758;6.120;2023-08-24T05:10:30;17.50;99.90
7972;DHT22;4031;49.758;6.120;2023-08-24T05:12:56;17.50;99.90
7972;DHT22;4031;49.758;6.120;2023-08-24T05:15:22;17.60;99.90
7972;DHT22;4031;49.758;6.120;2023-08-24T05:17:48;17.60;99.90
7972;DHT22;4031;49.758;6.120;2023-08-24T05:20:13;17.70;99.90
7972;DHT22;4031;49.758;6.120;2023-08-24T05:22:39;17.70;99.90
7972;DHT22;4031;49.758;6.120;2023-08-24T05:25:06;17.90;99.90
7972;DHT22;4031;49.758;6.120;2023-08-24T05:27:32;17.90;99.90
7972;DHT22;4031;49.758;6.120;2023-08-24T05:29:57;18.00;99.90
7972;DHT22;4031;49.758;6.120;2023-08-24T05:32:23;18.10;99.90
7972;DHT22;4031;49.758;6.120;2023-08-24T05:34:49;18.00;99.90
7972;DHT22;4031;49.758;6.120;2023-08-24T05:37:16;18.00;99.90
7972;DHT22;4031;49.758;6.120;2023-08-24T05:39:42;18.00;99.90
7972;DHT22;4031;49.758;6.120;2023-08-24T05:42:08;18.00;99.90
7972;DHT22;4031;49.758;6.120;2023-08-24T05:44:34;17.90;99.90
7972;DHT22;4031;49.758;6.120;2023-08-24T05:47:00;17.80;99.90
7972;DHT22;4031;49.758;6.120;2023-08-24T05:49:26;17.70;99.90
7972;DHT22;4031;49.758;6.120;2023-08-24T05:51:52;17.60;99.90
7972;DHT22;4031;49.758;6.120;2023-08-24T05:54:18;17.60;99.90
7972;DHT22;4031;49.758;6.120;2023-08-24T05:56:47;17.50;99.90
7972;DHT22;4031;49.758;6.120;2023-08-24T05:59:14;17.50;99.90
7972;DHT22;4031;49.758;6.120;2023-08-24T06:01:40;17.50;99.90
7972;DHT22;4031;49.758;6.120;2023-08-24T06:04:07;17.60;99.90
7972;DHT22;4031;49.758;6.120;2023-08-24T06:06:34;17.60;99.90
7972;DHT22;4031;49.758;6.120;2023-08-24T06:09:00;17.60;99.90
7972;DHT22;4031;49.758;6.120;2023-08-24T06:11:26;17.70;99.90
7972;DHT22;4031;49.758;6.120;2023-08-24T06:13:52;17.80;99.90
7972;DHT22;4031;49.758;6.120;2023-08-24T06:16:20;17.90;99.90
7972;DHT22;4031;49.758;6.120;2023-08-24T06:18:45;18.00;99.90
7972;DHT22;4031;49.758;6.120;2023-08-24T06:21:11;18.10;99.90
7972;DHT22;4031;49.758;6.120;2023-08-24T06:23:38;18.20;99.90
7972;DHT22;4031;49.758;6.120;2023-08-24T06:26:04;18.30;99.90
7972;DHT22;4031;49.758;6.120;2023-08-24T06:28:30;18.40;99.90
7972;DHT22;4031;49.758;6.120;2023-08-24T06:30:56;18.40;99.90
7972;DHT22;4031;49.758;6.120;2023-08-24T06:33:27;18.30;99.90
7972;DHT22;4031;49.758;6.120;2023-08-24T06:35:56;18.20;99.90
7972;DHT22;4031;49.758;6.120;2023-08-24T06:38:22;18.20;99.90
7972;DHT22;4031;49.758;6.120;2023-08-24T06:40:47;18.20;99.90
7972;DHT22;4031;49.758;6.120;2023-08-24T06:43:13;18.20;99.90
7972;DHT22;4031;49.758;6.120;2023-08-24T06:45:40;18.20;99.90
7972;DHT22;4031;49.758;6.120;2023-08-24T06:48:06;18.20;99.90
7972;DHT22;4031;49.758;6.120;2023-08-24T06:50:33;18.40;99.90
7972;DHT22;4031;49.758;6.120;2023-08-24T06:52:59;18.50;99.90
7972;DHT22;4031;49.758;6.120;2023-08-24T06:55:25;18.50;99.90
7972;DHT22;4031;49.758;6.120;2023-08-24T06:57:52;18.60;99.90
7972;DHT22;4031;49.758;6.120;2023-08-24T07:00:19;18.70;99.90
7972;DHT22;4031;49.758;6.120;2023-08-24T07:02:46;18.70;99.90
7972;DHT22;4031;49.758;6.120;2023-08-24T07:05:12;18.80;99.90
7972;DHT22;4031;49.758;6.120;2023-08-24T07:07:38;18.90;99.90
7972;DHT22;4031;49.758;6.120;2023-08-24T07:10:04;18.80;99.90
7972;DHT22;4031;49.758;6.120;2023-08-24T07:12:31;18.90;99.90
7972;DHT22;4031;49.758;6.120;2023-08-24T07:14:57;18.90;99.90
7972;DHT22;4031;49.758;6.120;2023-08-24T07:17:23;18.90;99.90
7972;DHT22;4031;49.758;6.120;2023-08-24T07:19:49;18.90;99.90
7972;DHT22;4031;49.758;6.120;2023-08-24T07:22:15;19.00;99.90
7972;DHT22;4031;49.758;6.120;2023-08-24T07:24:41;19.90;99.90
7972;DHT22;4031;49.758;6.120;2023-08-24T07:27:07;20.70;99.90
7972;DHT22;4031;49.758;6.120;2023-08-24T07:29:34;21.70;99.90
7972;DHT22;4031;49.758;6.120;2023-08-24T07:32:00;22.00;99.90
7972;DHT22;4031;49.758;6.120;2023-08-24T07:34:25;22.20;99.90
7972;DHT22;4031;49.758;6.120;2023-08-24T07:36:51;22.90;99.90
7972;DHT22;4031;49.758;6.120;2023-08-24T07:39:18;23.90;99.90
7972;DHT22;4031;49.758;6.120;2023-08-24T07:41:44;25.10;99.90
7972;DHT22;4031;49.758;6.120;2023-08-24T07:44:10;26.10;99.90
7972;DHT22;4031;49.758;6.120;2023-08-24T07:46:36;27.00;99.90
7972;DHT22;4031;49.758;6.120;2023-08-24T07:49:03;27.90;99.90
7972;DHT22;4031;49.758;6.120;2023-08-24T07:51:29;28.70;99.90
7972;DHT22;4031;49.758;6.120;2023-08-24T07:53:55;29.40;99.90
7972;DHT22;4031;49.758;6.120;2023-08-24T07:56:20;29.90;99.90
7972;DHT22;4031;49.758;6.120;2023-08-24T07:58:48;30.10;99.90
7972;DHT22;4031;49.758;6.120;2023-08-24T08:01:13;30.00;99.90
7972;DHT22;4031;49.758;6.120;2023-08-24T08:03:39;30.10;99.90
7972;DHT22;4031;49.758;6.120;2023-08-24T08:06:05;30.10;99.90
7972;DHT22;4031;49.758;6.120;2023-08-24T08:08:31;30.00;99.90
7972;DHT22;4031;49.758;6.120;2023-08-24T08:11:01;29.50;99.90
7972;DHT22;4031;49.758;6.120;2023-08-24T08:13:28;28.90;99.90
7972;DHT22;4031;49.758;6.120;2023-08-24T08:16:00;28.60;99.90
7972;DHT22;4031;49.758;6.120;2023-08-24T08:18:28;28.80;99.90
7972;DHT22;4031;49.758;6.120;2023-08-24T08:20:54;28.90;99.90
7972;DHT22;4031;49.758;6.120;2023-08-24T08:23:20;29.10;99.90
7972;DHT22;4031;49.758;6.120;2023-08-24T08:25:46;29.20;99.90
7972;DHT22;4031;49.758;6.120;2023-08-24T08:28:11;29.00;99.90
7972;DHT22;4031;49.758;6.120;2023-08-24T08:30:37;28.70;99.90
7972;DHT22;4031;49.758;6.120;2023-08-24T08:33:03;28.80;99.90
7972;DHT22;4031;49.758;6.120;2023-08-24T08:35:29;29.00;99.90
7972;DHT22;4031;49.758;6.120;2023-08-24T08:37:54;29.10;99.90
7972;DHT22;4031;49.758;6.120;2023-08-24T08:40:20;29.20;99.90
7972;DHT22;4031;49.758;6.120;2023-08-24T08:42:46;29.10;99.90
7972;DHT22;4031;49.758;6.120;2023-08-24T08:45:12;29.40;99.90
7972;DHT22;4031;49.758;6.120;2023-08-24T08:47:38;29.50;99.90
7972;DHT22;4031;49.758;6.120;2023-08-24T08:50:06;29.50;99.90
7972;DHT22;4031;49.758;6.120;2023-08-24T08:52:32;29.70;99.90
7972;DHT22;4031;49.758;6.120;2023-08-24T08:55:00;29.50;99.90
7972;DHT22;4031;49.758;6.120;2023-08-24T08:57:26;29.80;99.90
7972;DHT22;4031;49.758;6.120;2023-08-24T08:59:52;29.90;99.90
7972;DHT22;4031;49.758;6.120;2023-08-24T09:02:19;29.90;99.90
7972;DHT22;4031;49.758;6.120;2023-08-24T09:04:47;29.90;99.90
7972;DHT22;4031;49.758;6.120;2023-08-24T09:07:13;30.00;99.90
7972;DHT22;4031;49.758;6.120;2023-08-24T09:09:39;30.20;99.90
7972;DHT22;4031;49.758;6.120;2023-08-24T09:12:06;30.10;99.90
7972;DHT22;4031;49.758;6.120;2023-08-24T09:14:33;30.20;99.90
7972;DHT22;4031;49.758;6.120;2023-08-24T09:16:59;30.00;99.90
7972;DHT22;4031;49.758;6.120;2023-08-24T09:19:29;30.00;99.90
7972;DHT22;4031;49.758;6.120;2023-08-24T09:22:00;30.00;99.90
7972;DHT22;4031;49.758;6.120;2023-08-24T09:24:33;30.10;99.90
7972;DHT22;4031;49.758;6.120;2023-08-24T09:27:04;30.20;99.90
7972;DHT22;4031;49.758;6.120;2023-08-24T09:29:40;30.10;99.90
7972;DHT22;4031;49.758;6.120;2023-08-24T09:32:08;30.30;99.90
7972;DHT22;4031;49.758;6.120;2023-08-24T09:34:36;30.30;99.90
7972;DHT22;4031;49.758;6.120;2023-08-24T09:37:02;30.10;99.90
7972;DHT22;4031;49.758;6.120;2023-08-24T09:39:30;29.80;99.90
7972;DHT22;4031;49.758;6.120;2023-08-24T09:42:00;29.80;99.90
7972;DHT22;4031;49.758;6.120;2023-08-24T09:44:28;29.70;99.90
7972;DHT22;4031;49.758;6.120;2023-08-24T09:46:54;29.60;99.90
7972;DHT22;4031;49.758;6.120;2023-08-24T09:49:20;29.40;99.90
7972;DHT22;4031;49.758;6.120;2023-08-24T09:51:48;29.00;99.90
7972;DHT22;4031;49.758;6.120;2023-08-24T09:54:16;28.60;99.90
7972;DHT22;4031;49.758;6.120;2023-08-24T09:56:42;28.20;99.90
7972;DHT22;4031;49.758;6.120;2023-08-24T09:59:12;27.80;99.90
7972;DHT22;4031;49.758;6.120;2023-08-24T10:01:42;27.30;99.90
7972;DHT22;4031;49.758;6.120;2023-08-24T10:04:09;26.90;99.90
7972;DHT22;4031;49.758;6.120;2023-08-24T10:06:38;26.40;99.90
7972;DHT22;4031;49.758;6.120;2023-08-24T10:09:07;26.00;99.90
7972;DHT22;4031;49.758;6.120;2023-08-24T10:11:39;25.60;99.90
7972;DHT22;4031;49.758;6.120;2023-08-24T10:14:16;25.30;99.90
7972;DHT22;4031;49.758;6.120;2023-08-24T10:16:53;25.00;99.90
7972;DHT22;4031;49.758;6.120;2023-08-24T10:19:20;24.70;99.90
7972;DHT22;4031;49.758;6.120;2023-08-24T10:21:46;24.40;99.90
7972;DHT22;4031;49.758;6.120;2023-08-24T10:24:12;24.20;99.90
7972;DHT22;4031;49.758;6.120;2023-08-24T10:26:39;23.90;99.90
7972;DHT22;4031;49.758;6.120;2023-08-24T10:29:06;23.70;99.90
7972;DHT22;4031;49.758;6.120;2023-08-24T10:31:33;23.50;99.90
7972;DHT22;4031;49.758;6.120;2023-08-24T10:33:59;23.30;99.90
7972;DHT22;4031;49.758;6.120;2023-08-24T10:36:26;23.10;99.90
7972;DHT22;4031;49.758;6.120;2023-08-24T10:38:56;23.00;99.90
7972;DHT22;4031;49.758;6.120;2023-08-24T10:41:27;22.80;99.90
7972;DHT22;4031;49.758;6.120;2023-08-24T10:44:04;22.70;99.90
7972;DHT22;4031;49.758;6.120;2023-08-24T10:46:35;22.50;99.90
7972;DHT22;4031;49.758;6.120;2023-08-24T10:49:04;22.30;99.90
7972;DHT22;4031;49.758;6.120;2023-08-24T10:51:30;22.10;99.90
7972;DHT22;4031;49.758;6.120;2023-08-24T10:53:59;22.00;99.90
7972;DHT22;4031;49.758;6.120;2023-08-24T10:56:39;21.90;99.90
7972;DHT22;4031;49.758;6.120;2023-08-24T10:59:16;21.70;99.90
7972;DHT22;4031;49.758;6.120;2023-08-24T11:04:15;21.40;99.90
7972;DHT22;4031;49.758;6.120;2023-08-24T11:06:54;21.40;99.90
7972;DHT22;4031;49.758;6.120;2023-08-24T11:09:23;21.40;99.90
7972;DHT22;4031;49.758;6.120;2023-08-24T11:12:00;21.40;99.90
7972;DHT22;4031;49.758;6.120;2023-08-24T11:14:28;21.40;99.90
7972;DHT22;4031;49.758;6.120;2023-08-24T11:17:18;21.40;99.90
7972;DHT22;4031;49.758;6.120;2023-08-24T11:19:54;21.40;99.90
7972;DHT22;4031;49.758;6.120;2023-08-24T11:22:20;21.40;99.90
7972;DHT22;4031;49.758;6.120;2023-08-24T11:24:47;21.40;99.90
7972;DHT22;4031;49.758;6.120;2023-08-24T11:27:12;21.40;99.90
7972;DHT22;4031;49.758;6.120;2023-08-24T11:29:38;21.30;99.90
7972;DHT22;4031;49.758;6.120;2023-08-24T11:32:04;21.20;99.90
7972;DHT22;4031;49.758;6.120;2023-08-24T11:34:30;21.10;99.90
7972;DHT22;4031;49.758;6.120;2023-08-24T11:36:57;20.90;99.90
7972;DHT22;4031;49.758;6.120;2023-08-24T11:39:23;20.80;99.90
7972;DHT22;4031;49.758;6.120;2023-08-24T11:42:01;20.60;99.90
7972;DHT22;4031;49.758;6.120;2023-08-24T11:44:29;20.40;99.90
7972;DHT22;4031;49.758;6.120;2023-08-24T11:46:58;20.10;99.90
7972;DHT22;4031;49.758;6.120;2023-08-24T11:49:25;19.90;99.90
7972;DHT22;4031;49.758;6.120;2023-08-24T11:51:51;19.90;99.90
7972;DHT22;4031;49.758;6.120;2023-08-24T11:54:20;19.80;99.90
7972;DHT22;4031;49.758;6.120;2023-08-24T11:56:46;19.80;99.90
7972;DHT22;4031;49.758;6.120;2023-08-24T11:59:16;19.80;99.90
7972;DHT22;4031;49.758;6.120;2023-08-24T12:01:42;19.80;99.90
7972;DHT22;4031;49.758;6.120;2023-08-24T12:04:09;19.70;99.90
7972;DHT22;4031;49.758;6.120;2023-08-24T12:06:35;19.60;99.90
7972;DHT22;4031;49.758;6.120;2023-08-24T12:09:00;19.60;99.90
7972;DHT22;4031;49.758;6.120;2023-08-24T12:11:28;19.50;99.90
7972;DHT22;4031;49.758;6.120;2023-08-24T12:13:55;19.50;99.90
7972;DHT22;4031;49.758;6.120;2023-08-24T12:16:22;19.60;99.90
7972;DHT22;4031;49.758;6.120;2023-08-24T12:19:00;19.70;99.90
7972;DHT22;4031;49.758;6.120;2023-08-24T12:21:29;19.90;99.90
7972;DHT22;4031;49.758;6.120;2023-08-24T12:23:59;20.00;99.90
7972;DHT22;4031;49.758;6.120;2023-08-24T12:26:34;20.20;99.90
7972;DHT22;4031;49.758;6.120;2023-08-24T12:29:05;20.20;99.90
7972;DHT22;4031;49.758;6.120;2023-08-24T12:31:34;20.30;99.90
7972;DHT22;4031;49.758;6.120;2023-08-24T12:34:03;20.30;99.90
7972;DHT22;4031;49.758;6.120;2023-08-24T12:36:35;20.30;99.90
7972;DHT22;4031;49.758;6.120;2023-08-24T12:39:02;20.30;99.90
7972;DHT22;4031;49.758;6.120;2023-08-24T12:41:30;20.40;99.90
7972;DHT22;4031;49.758;6.120;2023-08-24T12:43:56;20.60;99.90
7972;DHT22;4031;49.758;6.120;2023-08-24T12:46:22;20.70;99.90
7972;DHT22;4031;49.758;6.120;2023-08-24T12:48:49;20.70;99.90
7972;DHT22;4031;49.758;6.120;2023-08-24T12:51:15;20.80;99.90
7972;DHT22;4031;49.758;6.120;2023-08-24T12:53:42;20.80;99.90
7972;DHT22;4031;49.758;6.120;2023-08-24T12:56:07;20.70;99.90
7972;DHT22;4031;49.758;6.120;2023-08-24T12:58:33;20.60;99.90
7972;DHT22;4031;49.758;6.120;2023-08-24T13:00:59;20.60;99.90
7972;DHT22;4031;49.758;6.120;2023-08-24T13:03:25;20.60;99.90
7972;DHT22;4031;49.758;6.120;2023-08-24T13:05:51;20.50;99.90
7972;DHT22;4031;49.758;6.120;2023-08-24T13:08:17;20.40;99.90
7972;DHT22;4031;49.758;6.120;2023-08-24T13:10:43;20.30;99.90
7972;DHT22;4031;49.758;6.120;2023-08-24T13:13:08;20.30;99.90
7972;DHT22;4031;49.758;6.120;2023-08-24T13:15:34;20.20;99.90
7972;DHT22;4031;49.758;6.120;2023-08-24T13:18:00;20.20;99.90
7972;DHT22;4031;49.758;6.120;2023-08-24T13:20:26;20.20;99.90
7972;DHT22;4031;49.758;6.120;2023-08-24T13:22:52;20.20;99.90
7972;DHT22;4031;49.758;6.120;2023-08-24T13:25:18;20.10;99.90
7972;DHT22;4031;49.758;6.120;2023-08-24T13:27:44;20.10;99.90
7972;DHT22;4031;49.758;6.120;2023-08-24T13:30:10;20.10;99.90
7972;DHT22;4031;49.758;6.120;2023-08-24T13:32:36;20.10;99.90
7972;DHT22;4031;49.758;6.120;2023-08-24T13:35:02;20.10;99.90
7972;DHT22;4031;49.758;6.120;2023-08-24T13:37:29;20.20;99.90
7972;DHT22;4031;49.758;6.120;2023-08-24T13:39:54;20.20;99.90
7972;DHT22;4031;49.758;6.120;2023-08-24T13:42:20;20.20;99.90
7972;DHT22;4031;49.758;6.120;2023-08-24T13:44:46;20.20;99.90
7972;DHT22;4031;49.758;6.120;2023-08-24T13:47:12;20.10;99.90
7972;DHT22;4031;49.758;6.120;2023-08-24T13:49:38;20.10;99.90
7972;DHT22;4031;49.758;6.120;2023-08-24T13:52:04;20.00;99.90
7972;DHT22;4031;49.758;6.120;2023-08-24T13:54:29;19.90;99.90
7972;DHT22;4031;49.758;6.120;2023-08-24T13:56:56;19.80;99.90
7972;DHT22;4031;49.758;6.120;2023-08-24T13:59:24;19.80;99.90
7972;DHT22;4031;49.758;6.120;2023-08-24T14:01:49;19.70;99.90
7972;DHT22;4031;49.758;6.120;2023-08-24T14:04:15;19.70;99.90
7972;DHT22;4031;49.758;6.120;2023-08-24T14:06:41;19.70;99.90
7972;DHT22;4031;49.758;6.120;2023-08-24T14:09:06;19.50;99.90
7972;DHT22;4031;49.758;6.120;2023-08-24T14:11:33;19.30;99.90
7972;DHT22;4031;49.758;6.120;2023-08-24T14:13:59;19.10;99.90
7972;DHT22;4031;49.758;6.120;2023-08-24T14:16:25;19.00;99.90
7972;DHT22;4031;49.758;6.120;2023-08-24T14:18:51;19.00;99.90
7972;DHT22;4031;49.758;6.120;2023-08-24T14:21:18;19.00;99.90
7972;DHT22;4031;49.758;6.120;2023-08-24T14:23:45;18.90;99.90
7972;DHT22;4031;49.758;6.120;2023-08-24T14:26:11;18.80;99.90
7972;DHT22;4031;49.758;6.120;2023-08-24T14:29:11;18.80;99.90
7972;DHT22;4031;49.758;6.120;2023-08-24T14:31:37;18.70;99.90
7972;DHT22;4031;49.758;6.120;2023-08-24T14:34:02;18.70;99.90
7972;DHT22;4031;49.758;6.120;2023-08-24T14:36:29;18.70;99.90
7972;DHT22;4031;49.758;6.120;2023-08-24T14:38:54;18.70;99.90
7972;DHT22;4031;49.758;6.120;2023-08-24T14:41:20;18.70;99.90
7972;DHT22;4031;49.758;6.120;2023-08-24T14:43:46;18.70;99.90
7972;DHT22;4031;49.758;6.120;2023-08-24T14:46:13;18.70;99.90
7972;DHT22;4031;49.758;6.120;2023-08-24T14:48:39;18.60;99.90
7972;DHT22;4031;49.758;6.120;2023-08-24T14:51:05;18.60;99.90
7972;DHT22;4031;49.758;6.120;2023-08-24T14:53:31;18.60;99.90
7972;DHT22;4031;49.758;6.120;2023-08-24T14:55:58;18.70;99.90
7972;DHT22;4031;49.758;6.120;2023-08-24T14:58:25;18.60;99.90
7972;DHT22;4031;49.758;6.120;2023-08-24T15:00:52;18.60;99.90
7972;DHT22;4031;49.758;6.120;2023-08-24T15:03:20;18.60;99.90
7972;DHT22;4031;49.758;6.120;2023-08-24T15:06:02;18.50;99.90
7972;DHT22;4031;49.758;6.120;2023-08-24T15:08:34;18.60;99.90
7972;DHT22;4031;49.758;6.120;2023-08-24T15:11:01;18.60;99.90
7972;DHT22;4031;49.758;6.120;2023-08-24T15:13:28;18.60;99.90
7972;DHT22;4031;49.758;6.120;2023-08-24T15:15:56;18.70;99.90
7972;DHT22;4031;49.758;6.120;2023-08-24T15:18:23;18.70;99.90
7972;DHT22;4031;49.758;6.120;2023-08-24T15:20:49;18.70;99.90
7972;DHT22;4031;49.758;6.120;2023-08-24T15:23:23;18.80;99.90
7972;DHT22;4031;49.758;6.120;2023-08-24T15:25:54;18.90;99.90
7972;DHT22;4031;49.758;6.120;2023-08-24T15:28:20;19.10;99.90
7972;DHT22;4031;49.758;6.120;2023-08-24T15:30:46;19.20;99.90
7972;DHT22;4031;49.758;6.120;2023-08-24T15:33:12;19.60;99.90
7972;DHT22;4031;49.758;6.120;2023-08-24T15:35:39;19.80;99.90
7972;DHT22;4031;49.758;6.120;2023-08-24T15:38:06;19.90;99.90
7972;DHT22;4031;49.758;6.120;2023-08-24T15:40:32;20.00;99.90
7972;DHT22;4031;49.758;6.120;2023-08-24T15:42:58;19.90;99.90
7972;DHT22;4031;49.758;6.120;2023-08-24T15:45:24;19.80;99.90
7972;DHT22;4031;49.758;6.120;2023-08-24T15:47:50;19.80;99.90
7972;DHT22;4031;49.758;6.120;2023-08-24T15:50:15;19.70;99.90
7972;DHT22;4031;49.758;6.120;2023-08-24T15:52:41;19.60;99.90
7972;DHT22;4031;49.758;6.120;2023-08-24T15:55:07;19.40;99.90
7972;DHT22;4031;49.758;6.120;2023-08-24T15:57:33;19.40;99.90
7972;DHT22;4031;49.758;6.120;2023-08-24T16:00:00;19.30;99.90
7972;DHT22;4031;49.758;6.120;2023-08-24T16:02:26;19.30;99.90
7972;DHT22;4031;49.758;6.120;2023-08-24T16:04:52;19.20;99.90
7972;DHT22;4031;49.758;6.120;2023-08-24T16:07:18;19.10;99.90
7972;DHT22;4031;49.758;6.120;2023-08-24T16:09:44;19.20;99.90
7972;DHT22;4031;49.758;6.120;2023-08-24T16:12:10;19.20;99.90